sensor_id;sensor_type;location;lat;lon;timestamp;P1;durP1;ratioP1;P2;durP2;ratioP2
2001;SDS011;1003;48.002;7.788;2023-08-06T00:02:11;3.37;;;2.10;;
2001;SDS011;1003;48.002;7.788;2023-08-06T00:04:38;3.37;;;2.10;;
2001;SDS011;1003;48.002;7.788;2023-08-06T00:07:07;3.07;;;2.17;;
2001;SDS011;1003;48.002;7.788;2023-08-06T00:09:33;2.20;;;2.00;;
2001;SDS011;1003;48.002;7.788;2023-08-06T00:12:00;3.57;;;2.03;;
2001;SDS011;1003;48.002;7.788;2023-08-06T00:14:28;3.10;;;2.10;;
2001;SDS011;1003;48.002;7.788;2023-08-06T00:16:55;2.80;;;2.10;;
2001;SDS011;1003;48.002;7.788;2023-08-06T00:19:22;4.53;;;2.20;;
2001;SDS011;1003;48.002;7.788;2023-08-06T00:21:49;4.20;;;2.03;;
2001;SDS011;1003;48.002;7.788;2023-08-06T00:24:17;2.17;;;1.83;;
2001;SDS011;1003;48.002;7.788;2023-08-06T00:26:44;2.93;;;2.20;;
2001;SDS011;1003;48.002;7.788;2023-08-06T00:29:11;2.30;;;2.00;;
2001;SDS011;1003;48.002;7.788;2023-08-06T00:31:38;3.70;;;2.10;;
2001;SDS011;1003;48.002;7.788;2023-08-06T00:34:05;2.30;;;2.10;;
2001;SDS011;1003;48.002;7.788;2023-08-06T00:36:32;3.00;;;2.00;;
2001;SDS011;1003;48.002;7.788;2023-08-06T00:39:00;2.93;;;2.00;;
2001;SDS011;1003;48.002;7.788;2023-08-06T00:41:29;5.33;;;2.13;;
2001;SDS011;1003;48.002;7.788;2023-08-06T00:43:56;2.73;;;2.10;;
2001;SDS011;1003;48.002;7.788;2023-08-06T00:46:23;3.73;;;2.17;;
2001;SDS011;1003;48.002;7.788;2023-08-06T00:48:50;3.43;;;1.77;;
2001;SDS011;1003;48.002;7.788;2023-08-06T00:51:17;3.63;;;1.87;;
2001;SDS011;1003;48.002;7.788;2023-08-06T00:53:46;3.00;;;1.93;;
2001;SDS011;1003;48.002;7.788;2023-08-06T00:56:15;2.57;;;1.60;;
2001;SDS011;1003;48.002;7.788;2023-08-06T00:58:44;3.37;;;1.90;;
2001;SDS011;1003;48.002;7.788;2023-08-06T01:01:15;2.17;;;1.87;;
2001;SDS011;1003;48.002;7.788;2023-08-06T01:03:50;2.30;;;1.70;;
2001;SDS011;1003;48.002;7.788;2023-08-06T01:06:18;4.37;;;1.90;;
2001;SDS011;1003;48.002;7.788;2023-08-06T01:08:58;2.13;;;1.77;;
2001;SDS011;1003;48.002;7.788;2023-08-06T01:11:33;2.77;;;2.03;;
2001;SDS011;1003;48.002;7.788;2023-08-06T01:14:21;4.50;;;1.70;;
2001;SDS011;1003;48.002;7.788;2023-08-06T01:16:56;2.17;;;1.50;;
2001;SDS011;1003;48.002;7.788;2023-08-06T01:19:27;2.80;;;1.60;;
2001;SDS011;1003;48.002;7.788;2023-08-06T01:21:55;1.70;;;1.60;;
2001;SDS011;1003;48.002;7.788;2023-08-06T01:24:22;3.70;;;1.90;;
2001;SDS011;1003;48.002;7.788;2023-08-06T01:26:51;3.57;;;2.00;;
2001;SDS011;1003;48.002;7.788;2023-08-06T01:29:31;2.47;;;1.77;;
2001;SDS011;1003;48.002;7.788;2023-08-06T01:32:03;3.83;;;1.93;;
2001;SDS011;1003;48.002;7.788;2023-08-06T01:34:33;2.73;;;1.70;;
2001;SDS011;1003;48.002;7.788;2023-08-06T01:37:03;2.10;;;1.70;;
2001;SDS011;1003;48.002;7.788;2023-08-06T01:39:32;2.00;;;1.73;;
2001;SDS011;1003;48.002;7.788;2023-08-06T01:42:00;3.17;;;1.93;;
2001;SDS011;1003;48.002;7.788;2023-08-06T01:44:27;1.77;;;1.67;;
2001;SDS011;1003;48.002;7.788;2023-08-06T01:46:54;4.77;;;1.53;;
2001;SDS011;1003;48.002;7.788;2023-08-06T01:49:21;1.83;;;1.50;;
2001;SDS011;1003;48.002;7.788;2023-08-06T01:51:48;2.10;;;1.70;;
2001;SDS011;1003;48.002;7.788;2023-08-06T01:54:16;2.77;;;1.70;;
2001;SDS011;1003;48.002;7.788;2023-08-06T01:56:43;2.87;;;2.03;;
2001;SDS011;1003;48.002;7.788;2023-08-06T01:59:10;2.50;;;1.67;;
2001;SDS011;1003;48.002;7.788;2023-08-06T02:01:37;3.60;;;1.80;;
2001;SDS011;1003;48.002;7.788;2023-08-06T02:04:04;4.07;;;2.17;;
2001;SDS011;1003;48.002;7.788;2023-08-06T02:06:31;2.87;;;2.10;;
2001;SDS011;1003;48.002;7.788;2023-08-06T02:08:58;2.43;;;1.87;;
2001;SDS011;1003;48.002;7.788;2023-08-06T02:11:27;3.10;;;1.70;;
2001;SDS011;1003;48.002;7.788;2023-08-06T02:13:54;5.07;;;1.70;;
2001;SDS011;1003;48.002;7.788;2023-08-06T02:16:21;2.70;;;1.50;;
2001;SDS011;1003;48.002;7.788;2023-08-06T02:18:48;3.67;;;1.80;;
2001;SDS011;1003;48.002;7.788;2023-08-06T02:21:15;2.07;;;1.53;;
2001;SDS011;1003;48.002;7.788;2023-08-06T02:23:45;1.90;;;1.70;;
2001;SDS011;1003;48.002;7.788;2023-08-06T02:26:12;1.70;;;1.60;;
2001;SDS011;1003;48.002;7.788;2023-08-06T02:28:43;2.37;;;1.50;;
2001;SDS011;1003;48.002;7.788;2023-08-06T02:31:10;3.57;;;2.30;;
2001;SDS011;1003;48.002;7.788;2023-08-06T02:33:37;1.67;;;1.50;;
2001;SDS011;1003;48.002;7.788;2023-08-06T02:36:04;3.23;;;1.70;;
2001;SDS011;1003;48.002;7.788;2023-08-06T02:38:32;3.03;;;1.80;;
2001;SDS011;1003;48.002;7.788;2023-08-06T02:40:59;2.30;;;1.80;;
2001;SDS011;1003;48.002;7.788;2023-08-06T02:43:29;2.23;;;1.60;;
2001;SDS011;1003;48.002;7.788;2023-08-06T02:45:58;4.40;;;1.73;;
2001;SDS011;1003;48.002;7.788;2023-08-06T02:48:25;3.03;;;1.47;;
2001;SDS011;1003;48.002;7.788;2023-08-06T02:50:52;2.23;;;1.50;;
2001;SDS011;1003;48.002;7.788;2023-08-06T02:53:24;4.00;;;1.33;;
2001;SDS011;1003;48.002;7.788;2023-08-06T02:55:51;2.23;;;1.30;;
2001;SDS011;1003;48.002;7.788;2023-08-06T02:58:18;1.67;;;1.30;;
2001;SDS011;1003;48.002;7.788;2023-08-06T03:00:47;2.43;;;1.27;;
2001;SDS011;1003;48.002;7.788;2023-08-06T03:03:28;3.03;;;1.17;;
2001;SDS011;1003;48.002;7.788;2023-08-06T03:05:55;3.03;;;1.10;;
2001;SDS011;1003;48.002;7.788;2023-08-06T03:08:22;2.30;;;0.90;;
2001;SDS011;1003;48.002;7.788;2023-08-06T03:10:50;1.20;;;0.77;;
2001;SDS011;1003;48.002;7.788;2023-08-06T03:13:17;1.00;;;0.90;;
2001;SDS011;1003;48.002;7.788;2023-08-06T03:15:51;0.87;;;0.73;;
2001;SDS011;1003;48.002;7.788;2023-08-06T03:18:20;1.70;;;1.00;;
2001;SDS011;1003;48.002;7.788;2023-08-06T03:20:48;2.23;;;0.77;;
2001;SDS011;1003;48.002;7.788;2023-08-06T03:23:15;1.07;;;0.47;;
2001;SDS011;1003;48.002;7.788;2023-08-06T03:25:42;1.30;;;0.50;;
2001;SDS011;1003;48.002;7.788;2023-08-06T03:28:09;0.60;;;0.60;;
2001;SDS011;1003;48.002;7.788;2023-08-06T03:30:37;0.93;;;0.60;;
2001;SDS011;1003;48.002;7.788;2023-08-06T03:33:04;0.60;;;0.60;;
2001;SDS011;1003;48.002;7.788;2023-08-06T03:35:33;1.37;;;0.50;;
2001;SDS011;1003;48.002;7.788;2023-08-06T03:38:00;2.73;;;0.50;;
2001;SDS011;1003;48.002;7.788;2023-08-06T03:40:27;1.30;;;0.50;;
2001;SDS011;1003;48.002;7.788;2023-08-06T03:42:54;2.57;;;0.60;;
2001;SDS011;1003;48.002;7.788;2023-08-06T03:45:21;0.53;;;0.53;;
2001;SDS011;1003;48.002;7.788;2023-08-06T03:47:48;1.17;;;0.40;;
2001;SDS011;1003;48.002;7.788;2023-08-06T03:50:15;1.77;;;0.80;;
2001;SDS011;1003;48.002;7.788;2023-08-06T03:52:43;1.23;;;0.40;;
2001;SDS011;1003;48.002;7.788;2023-08-06T03:55:10;2.30;;;0.47;;
2001;SDS011;1003;48.002;7.788;2023-08-06T03:57:37;2.03;;;0.73;;
2001;SDS011;1003;48.002;7.788;2023-08-06T04:00:05;0.93;;;0.50;;
2001;SDS011;1003;48.002;7.788;2023-08-06T04:02:33;2.27;;;0.90;;
2001;SDS011;1003;48.002;7.788;2023-08-06T04:05:00;1.23;;;0.70;;
2001;SDS011;1003;48.002;7.788;2023-08-06T04:07:27;3.40;;;0.80;;
2001;SDS011;1003;48.002;7.788;2023-08-06T04:09:56;2.30;;;0.80;;
2001;SDS011;1003;48.002;7.788;2023-08-06T04:12:25;2.17;;;0.67;;
2001;SDS011;1003;48.002;7.788;2023-08-06T04:14:52;1.63;;;0.70;;
2001;SDS011;1003;48.002;7.788;2023-08-06T04:17:20;4.17;;;1.00;;
2001;SDS011;1003;48.002;7.788;2023-08-06T04:19:48;2.27;;;1.07;;
2001;SDS011;1003;48.002;7.788;2023-08-06T04:22:18;3.20;;;1.00;;
2001;SDS011;1003;48.002;7.788;2023-08-06T04:24:46;1.57;;;1.00;;
2001;SDS011;1003;48.002;7.788;2023-08-06T04:27:15;1.97;;;1.20;;
2001;SDS011;1003;48.002;7.788;2023-08-06T04:29:42;2.73;;;1.00;;
2001;SDS011;1003;48.002;7.788;2023-08-06T04:32:10;3.53;;;1.10;;
2001;SDS011;1003;48.002;7.788;2023-08-06T04:34:38;4.77;;;1.43;;
2001;SDS011;1003;48.002;7.788;2023-08-06T04:37:05;4.43;;;1.30;;
2001;SDS011;1003;48.002;7.788;2023-08-06T04:39:33;2.30;;;1.30;;
2001;SDS011;1003;48.002;7.788;2023-08-06T04:42:00;2.17;;;1.17;;
2001;SDS011;1003;48.002;7.788;2023-08-06T04:44:28;7.13;;;1.27;;
2001;SDS011;1003;48.002;7.788;2023-08-06T04:46:55;1.73;;;1.10;;
2001;SDS011;1003;48.002;7.788;2023-08-06T04:49:22;3.73;;;1.20;;
2001;SDS011;1003;48.002;7.788;2023-08-06T04:51:51;4.10;;;1.40;;
2001;SDS011;1003;48.002;7.788;2023-08-06T04:54:18;3.47;;;1.20;;
2001;SDS011;1003;48.002;7.788;2023-08-06T04:56:45;5.17;;;1.50;;
2001;SDS011;1003;48.002;7.788;2023-08-06T04:59:12;2.90;;;1.50;;
2001;SDS011;1003;48.002;7.788;2023-08-06T05:01:43;4.13;;;1.40;;
2001;SDS011;1003;48.002;7.788;2023-08-06T05:04:10;5.07;;;1.97;;
2001;SDS011;1003;48.002;7.788;2023-08-06T05:06:37;3.47;;;1.30;;
2001;SDS011;1003;48.002;7.788;2023-08-06T05:09:05;3.77;;;1.40;;
2001;SDS011;1003;48.002;7.788;2023-08-06T05:11:32;2.70;;;1.40;;
2001;SDS011;1003;48.002;7.788;2023-08-06T05:13:59;5.83;;;1.70;;
2001;SDS011;1003;48.002;7.788;2023-08-06T05:16:26;3.40;;;1.20;;
2001;SDS011;1003;48.002;7.788;2023-08-06T05:18:54;2.87;;;1.47;;
2001;SDS011;1003;48.002;7.788;2023-08-06T05:21:21;4.83;;;1.60;;
2001;SDS011;1003;48.002;7.788;2023-08-06T05:23:48;5.20;;;1.60;;
2001;SDS011;1003;48.002;7.788;2023-08-06T05:26:15;4.57;;;1.60;;
2001;SDS011;1003;48.002;7.788;2023-08-06T05:28:44;4.43;;;1.50;;
2001;SDS011;1003;48.002;7.788;2023-08-06T05:31:11;3.30;;;1.47;;
2001;SDS011;1003;48.002;7.788;2023-08-06T05:33:39;4.63;;;1.47;;
2001;SDS011;1003;48.002;7.788;2023-08-06T05:36:07;4.73;;;1.67;;
2001;SDS011;1003;48.002;7.788;2023-08-06T05:38:34;3.40;;;1.70;;
2001;SDS011;1003;48.002;7.788;2023-08-06T05:41:01;6.70;;;1.50;;
2001;SDS011;1003;48.002;7.788;2023-08-06T05:43:28;5.80;;;1.43;;
2001;SDS011;1003;48.002;7.788;2023-08-06T05:45:55;2.13;;;1.27;;
2001;SDS011;1003;48.002;7.788;2023-08-06T05:48:23;4.93;;;1.30;;
2001;SDS011;1003;48.002;7.788;2023-08-06T05:50:50;3.57;;;1.37;;
2001;SDS011;1003;48.002;7.788;2023-08-06T05:53:19;2.97;;;1.30;;
2001;SDS011;1003;48.002;7.788;2023-08-06T05:55:46;3.00;;;1.13;;
2001;SDS011;1003;48.002;7.788;2023-08-06T05:58:13;3.90;;;1.57;;
2001;SDS011;1003;48.002;7.788;2023-08-06T06:00:41;3.27;;;1.30;;
2001;SDS011;1003;48.002;7.788;2023-08-06T06:03:08;3.23;;;1.33;;
2001;SDS011;1003;48.002;7.788;2023-08-06T06:05:37;5.30;;;1.30;;
2001;SDS011;1003;48.002;7.788;2023-08-06T06:08:04;4.03;;;1.30;;
2001;SDS011;1003;48.002;7.788;2023-08-06T06:10:33;2.20;;;1.00;;
2001;SDS011;1003;48.002;7.788;2023-08-06T06:13:01;2.53;;;1.03;;
2001;SDS011;1003;48.002;7.788;2023-08-06T06:15:28;2.40;;;1.10;;
2001;SDS011;1003;48.002;7.788;2023-08-06T06:17:55;3.00;;;1.20;;
2001;SDS011;1003;48.002;7.788;2023-08-06T06:20:22;6.27;;;1.93;;
2001;SDS011;1003;48.002;7.788;2023-08-06T06:22:49;5.57;;;1.50;;
2001;SDS011;1003;48.002;7.788;2023-08-06T06:25:16;3.03;;;1.30;;
2001;SDS011;1003;48.002;7.788;2023-08-06T06:27:45;3.83;;;1.10;;
2001;SDS011;1003;48.002;7.788;2023-08-06T06:30:12;3.93;;;1.30;;
2001;SDS011;1003;48.002;7.788;2023-08-06T06:32:42;2.50;;;1.10;;
2001;SDS011;1003;48.002;7.788;2023-08-06T06:35:09;2.40;;;0.77;;
2001;SDS011;1003;48.002;7.788;2023-08-06T06:37:36;3.30;;;1.20;;
2001;SDS011;1003;48.002;7.788;2023-08-06T06:40:04;2.07;;;1.20;;
2001;SDS011;1003;48.002;7.788;2023-08-06T06:42:32;2.60;;;1.10;;
2001;SDS011;1003;48.002;7.788;2023-08-06T06:45:00;1.83;;;0.93;;
2001;SDS011;1003;48.002;7.788;2023-08-06T06:47:27;3.23;;;1.00;;
2001;SDS011;1003;48.002;7.788;2023-08-06T06:49:54;2.73;;;1.00;;
2001;SDS011;1003;48.002;7.788;2023-08-06T06:52:21;2.70;;;0.93;;
2001;SDS011;1003;48.002;7.788;2023-08-06T06:54:48;1.33;;;0.90;;
2001;SDS011;1003;48.002;7.788;2023-08-06T06:57:15;2.30;;;1.00;;
2001;SDS011;1003;48.002;7.788;2023-08-06T06:59:42;1.70;;;0.80;;
2001;SDS011;1003;48.002;7.788;2023-08-06T07:02:11;2.30;;;1.00;;
2001;SDS011;1003;48.002;7.788;2023-08-06T07:04:38;1.67;;;0.97;;
2001;SDS011;1003;48.002;7.788;2023-08-06T07:07:05;3.40;;;1.00;;
2001;SDS011;1003;48.002;7.788;2023-08-06T07:09:32;1.60;;;1.00;;
2001;SDS011;1003;48.002;7.788;2023-08-06T07:11:59;1.23;;;0.80;;
2001;SDS011;1003;48.002;7.788;2023-08-06T07:14:26;0.90;;;0.73;;
2001;SDS011;1003;48.002;7.788;2023-08-06T07:16:54;1.67;;;0.90;;
2001;SDS011;1003;48.002;7.788;2023-08-06T07:19:23;1.53;;;0.80;;
2001;SDS011;1003;48.002;7.788;2023-08-06T07:21:50;2.80;;;0.80;;
2001;SDS011;1003;48.002;7.788;2023-08-06T07:24:17;1.40;;;0.53;;
2001;SDS011;1003;48.002;7.788;2023-08-06T07:26:44;1.60;;;1.10;;
2001;SDS011;1003;48.002;7.788;2023-08-06T07:29:11;1.73;;;0.77;;
2001;SDS011;1003;48.002;7.788;2023-08-06T07:31:44;0.77;;;0.73;;
2001;SDS011;1003;48.002;7.788;2023-08-06T07:34:11;1.03;;;0.50;;
2001;SDS011;1003;48.002;7.788;2023-08-06T07:36:44;0.93;;;0.60;;
2001;SDS011;1003;48.002;7.788;2023-08-06T07:39:12;3.00;;;0.70;;
2001;SDS011;1003;48.002;7.788;2023-08-06T07:41:43;0.67;;;0.57;;
2001;SDS011;1003;48.002;7.788;2023-08-06T07:44:15;1.10;;;0.50;;
2001;SDS011;1003;48.002;7.788;2023-08-06T07:46:42;0.43;;;0.43;;
2001;SDS011;1003;48.002;7.788;2023-08-06T07:49:09;0.30;;;0.30;;
2001;SDS011;1003;48.002;7.788;2023-08-06T07:51:37;0.50;;;0.50;;
2001;SDS011;1003;48.002;7.788;2023-08-06T07:54:05;0.30;;;0.30;;
2001;SDS011;1003;48.002;7.788;2023-08-06T07:56:33;0.40;;;0.40;;
2001;SDS011;1003;48.002;7.788;2023-08-06T07:59:01;0.70;;;0.40;;
2001;SDS011;1003;48.002;7.788;2023-08-06T08:01:28;1.33;;;0.40;;
2001;SDS011;1003;48.002;7.788;2023-08-06T08:03:55;0.87;;;0.30;;
2001;SDS011;1003;48.002;7.788;2023-08-06T08:06:22;0.20;;;0.20;;
2001;SDS011;1003;48.002;7.788;2023-08-06T08:08:49;1.07;;;0.40;;
2001;SDS011;1003;48.002;7.788;2023-08-06T08:11:18;0.77;;;0.50;;
2001;SDS011;1003;48.002;7.788;2023-08-06T08:13:47;0.30;;;0.30;;
2001;SDS011;1003;48.002;7.788;2023-08-06T08:16:14;0.30;;;0.30;;
2001;SDS011;1003;48.002;7.788;2023-08-06T08:18:41;0.30;;;0.30;;
2001;SDS011;1003;48.002;7.788;2023-08-06T08:21:08;0.30;;;0.30;;
2001;SDS011;1003;48.002;7.788;2023-08-06T08:23:35;0.20;;;0.20;;
2001;SDS011;1003;48.002;7.788;2023-08-06T08:26:04;0.30;;;0.30;;
2001;SDS011;1003;48.002;7.788;2023-08-06T08:28:32;1.30;;;0.30;;
2001;SDS011;1003;48.002;7.788;2023-08-06T08:30:59;0.57;;;0.30;;
2001;SDS011;1003;48.002;7.788;2023-08-06T08:33:26;0.63;;;0.30;;
2001;SDS011;1003;48.002;7.788;2023-08-06T08:35:53;0.50;;;0.40;;
2001;SDS011;1003;48.002;7.788;2023-08-06T08:38:20;0.53;;;0.40;;
2001;SDS011;1003;48.002;7.788;2023-08-06T08:40:47;0.67;;;0.43;;
2001;SDS011;1003;48.002;7.788;2023-08-06T08:43:22;1.23;;;0.40;;
2001;SDS011;1003;48.002;7.788;2023-08-06T08:45:51;0.50;;;0.50;;
2001;SDS011;1003;48.002;7.788;2023-08-06T08:48:23;0.50;;;0.40;;
2001;SDS011;1003;48.002;7.788;2023-08-06T08:50:51;0.40;;;0.40;;
2001;SDS011;1003;48.002;7.788;2023-08-06T08:53:19;0.43;;;0.30;;
2001;SDS011;1003;48.002;7.788;2023-08-06T08:55:48;1.70;;;0.47;;
2001;SDS011;1003;48.002;7.788;2023-08-06T08:58:16;0.63;;;0.40;;
2001;SDS011;1003;48.002;7.788;2023-08-06T09:00:43;0.40;;;0.40;;
2001;SDS011;1003;48.002;7.788;2023-08-06T09:03:14;0.50;;;0.50;;
2001;SDS011;1003;48.002;7.788;2023-08-06T09:05:43;0.43;;;0.43;;
2001;SDS011;1003;48.002;7.788;2023-08-06T09:08:15;0.50;;;0.30;;
2001;SDS011;1003;48.002;7.788;2023-08-06T09:10:47;0.40;;;0.40;;
2001;SDS011;1003;48.002;7.788;2023-08-06T09:13:16;0.40;;;0.40;;
2001;SDS011;1003;48.002;7.788;2023-08-06T09:15:44;1.33;;;0.50;;
2001;SDS011;1003;48.002;7.788;2023-08-06T09:18:12;1.00;;;0.40;;
2001;SDS011;1003;48.002;7.788;2023-08-06T09:20:41;0.73;;;0.50;;
2001;SDS011;1003;48.002;7.788;2023-08-06T09:23:10;0.40;;;0.40;;
2001;SDS011;1003;48.002;7.788;2023-08-06T09:25:39;0.93;;;0.70;;
2001;SDS011;1003;48.002;7.788;2023-08-06T09:28:07;0.30;;;0.30;;
2001;SDS011;1003;48.002;7.788;2023-08-06T09:30:35;0.47;;;0.30;;
2001;SDS011;1003;48.002;7.788;2023-08-06T09:33:04;0.40;;;0.40;;
2001;SDS011;1003;48.002;7.788;2023-08-06T09:35:38;0.37;;;0.37;;
2001;SDS011;1003;48.002;7.788;2023-08-06T09:38:05;0.30;;;0.30;;
2001;SDS011;1003;48.002;7.788;2023-08-06T09:40:35;0.77;;;0.30;;
2001;SDS011;1003;48.002;7.788;2023-08-06T09:43:03;0.50;;;0.50;;
2001;SDS011;1003;48.002;7.788;2023-08-06T09:45:30;0.17;;;0.17;;
2001;SDS011;1003;48.002;7.788;2023-08-06T09:47:59;0.30;;;0.30;;
2001;SDS011;1003;48.002;7.788;2023-08-06T09:50:30;0.30;;;0.30;;
2001;SDS011;1003;48.002;7.788;2023-08-06T09:53:02;0.30;;;0.30;;
2001;SDS011;1003;48.002;7.788;2023-08-06T09:55:30;0.40;;;0.40;;
2001;SDS011;1003;48.002;7.788;2023-08-06T09:57:59;0.63;;;0.50;;
2001;SDS011;1003;48.002;7.788;2023-08-06T10:00:30;0.70;;;0.50;;
2001;SDS011;1003;48.002;7.788;2023-08-06T10:02:59;0.40;;;0.40;;
2001;SDS011;1003;48.002;7.788;2023-08-06T10:05:28;0.50;;;0.50;;
2001;SDS011;1003;48.002;7.788;2023-08-06T10:07:58;0.50;;;0.40;;
2001;SDS011;1003;48.002;7.788;2023-08-06T10:10:29;0.33;;;0.33;;
2001;SDS011;1003;48.002;7.788;2023-08-06T10:12:58;0.30;;;0.30;;
2001;SDS011;1003;48.002;7.788;2023-08-06T10:15:28;0.40;;;0.40;;
2001;SDS011;1003;48.002;7.788;2023-08-06T10:17:59;0.73;;;0.53;;
2001;SDS011;1003;48.002;7.788;2023-08-06T10:20:32;1.03;;;0.50;;
2001;SDS011;1003;48.002;7.788;2023-08-06T10:23:01;1.23;;;0.50;;
2001;SDS011;1003;48.002;7.788;2023-08-06T10:25:32;0.40;;;0.40;;
2001;SDS011;1003;48.002;7.788;2023-08-06T10:28:00;3.27;;;0.37;;
2001;SDS011;1003;48.002;7.788;2023-08-06T10:30:36;0.67;;;0.50;;
2001;SDS011;1003;48.002;7.788;2023-08-06T10:33:09;0.50;;;0.50;;
2001;SDS011;1003;48.002;7.788;2023-08-06T10:35:37;0.87;;;0.40;;
2001;SDS011;1003;48.002;7.788;2023-08-06T10:38:10;0.50;;;0.50;;
2001;SDS011;1003;48.002;7.788;2023-08-06T10:40:39;0.47;;;0.40;;
2001;SDS011;1003;48.002;7.788;2023-08-06T10:43:08;0.83;;;0.50;;
2001;SDS011;1003;48.002;7.788;2023-08-06T10:45:53;0.60;;;0.60;;
2001;SDS011;1003;48.002;7.788;2023-08-06T10:48:31;0.73;;;0.40;;
2001;SDS011;1003;48.002;7.788;2023-08-06T10:51:02;0.50;;;0.50;;
2001;SDS011;1003;48.002;7.788;2023-08-06T10:53:37;0.50;;;0.50;;
2001;SDS011;1003;48.002;7.788;2023-08-06T10:56:11;2.43;;;0.53;;
2001;SDS011;1003;48.002;7.788;2023-08-06T10:58:42;0.47;;;0.40;;
2001;SDS011;1003;48.002;7.788;2023-08-06T11:01:10;0.40;;;0.40;;
2001;SDS011;1003;48.002;7.788;2023-08-06T11:03:38;1.43;;;0.30;;
2001;SDS011;1003;48.002;7.788;2023-08-06T11:06:06;0.30;;;0.30;;
2001;SDS011;1003;48.002;7.788;2023-08-06T11:08:35;0.40;;;0.40;;
2001;SDS011;1003;48.002;7.788;2023-08-06T11:11:09;1.10;;;0.50;;
2001;SDS011;1003;48.002;7.788;2023-08-06T11:13:38;0.60;;;0.40;;
2001;SDS011;1003;48.002;7.788;2023-08-06T11:16:08;0.73;;;0.47;;
2001;SDS011;1003;48.002;7.788;2023-08-06T11:18:36;0.40;;;0.40;;
2001;SDS011;1003;48.002;7.788;2023-08-06T11:21:03;1.40;;;0.60;;
2001;SDS011;1003;48.002;7.788;2023-08-06T11:23:30;0.87;;;0.30;;
2001;SDS011;1003;48.002;7.788;2023-08-06T11:26:01;0.43;;;0.30;;
2001;SDS011;1003;48.002;7.788;2023-08-06T11:28:29;0.20;;;0.20;;
2001;SDS011;1003;48.002;7.788;2023-08-06T11:30:57;2.87;;;0.90;;
2001;SDS011;1003;48.002;7.788;2023-08-06T11:33:27;1.00;;;0.80;;
2001;SDS011;1003;48.002;7.788;2023-08-06T11:35:56;0.40;;;0.40;;
2001;SDS011;1003;48.002;7.788;2023-08-06T11:38:25;0.33;;;0.30;;
2001;SDS011;1003;48.002;7.788;2023-08-06T11:40:54;0.63;;;0.40;;
2001;SDS011;1003;48.002;7.788;2023-08-06T11:43:23;0.30;;;0.30;;
2001;SDS011;1003;48.002;7.788;2023-08-06T11:45:50;0.77;;;0.43;;
2001;SDS011;1003;48.002;7.788;2023-08-06T11:48:19;0.30;;;0.30;;
2001;SDS011;1003;48.002;7.788;2023-08-06T11:50:46;0.30;;;0.30;;
2001;SDS011;1003;48.002;7.788;2023-08-06T11:53:16;0.70;;;0.47;;
2001;SDS011;1003;48.002;7.788;2023-08-06T11:55:43;0.37;;;0.20;;
2001;SDS011;1003;48.002;7.788;2023-08-06T11:58:11;0.40;;;0.40;;
2001;SDS011;1003;48.002;7.788;2023-08-06T12:00:41;0.77;;;0.30;;
2001;SDS011;1003;48.002;7.788;2023-08-06T12:03:12;0.40;;;0.30;;
2001;SDS011;1003;48.002;7.788;2023-08-06T12:05:40;0.30;;;0.30;;
2001;SDS011;1003;48.002;7.788;2023-08-06T12:08:08;0.37;;;0.37;;
2001;SDS011;1003;48.002;7.788;2023-08-06T12:10:35;0.70;;;0.23;;
2001;SDS011;1003;48.002;7.788;2023-08-06T12:13:03;0.30;;;0.30;;
2001;SDS011;1003;48.002;7.788;2023-08-06T12:15:30;0.17;;;0.17;;
2001;SDS011;1003;48.002;7.788;2023-08-06T12:17:58;0.20;;;0.20;;
2001;SDS011;1003;48.002;7.788;2023-08-06T12:20:28;0.23;;;0.23;;
2001;SDS011;1003;48.002;7.788;2023-08-06T12:22:55;0.33;;;0.30;;
2001;SDS011;1003;48.002;7.788;2023-08-06T12:25:22;0.50;;;0.20;;
2001;SDS011;1003;48.002;7.788;2023-08-06T12:27:49;0.33;;;0.20;;
2001;SDS011;1003;48.002;7.788;2023-08-06T12:30:16;0.27;;;0.27;;
2001;SDS011;1003;48.002;7.788;2023-08-06T12:32:43;0.20;;;0.20;;
2001;SDS011;1003;48.002;7.788;2023-08-06T12:35:11;0.30;;;0.30;;
2001;SDS011;1003;48.002;7.788;2023-08-06T12:37:41;0.20;;;0.20;;
2001;SDS011;1003;48.002;7.788;2023-08-06T12:40:10;0.97;;;0.40;;
2001;SDS011;1003;48.002;7.788;2023-08-06T12:42:37;1.37;;;0.30;;
2001;SDS011;1003;48.002;7.788;2023-08-06T12:45:05;0.43;;;0.37;;
2001;SDS011;1003;48.002;7.788;2023-08-06T12:47:33;0.57;;;0.40;;
2001;SDS011;1003;48.002;7.788;2023-08-06T12:50:00;0.60;;;0.40;;
2001;SDS011;1003;48.002;7.788;2023-08-06T12:52:28;0.60;;;0.40;;
2001;SDS011;1003;48.002;7.788;2023-08-06T12:54:55;0.43;;;0.43;;
2001;SDS011;1003;48.002;7.788;2023-08-06T12:57:22;0.60;;;0.60;;
2001;SDS011;1003;48.002;7.788;2023-08-06T12:59:49;0.70;;;0.37;;
2001;SDS011;1003;48.002;7.788;2023-08-06T13:02:18;0.40;;;0.40;;
2001;SDS011;1003;48.002;7.788;2023-08-06T13:04:45;0.40;;;0.40;;
2001;SDS011;1003;48.002;7.788;2023-08-06T13:07:13;0.43;;;0.40;;
2001;SDS011;1003;48.002;7.788;2023-08-06T13:09:41;0.60;;;0.60;;
2001;SDS011;1003;48.002;7.788;2023-08-06T13:12:08;0.50;;;0.50;;
2001;SDS011;1003;48.002;7.788;2023-08-06T13:14:35;1.07;;;0.60;;
2001;SDS011;1003;48.002;7.788;2023-08-06T13:17:02;0.40;;;0.40;;
2001;SDS011;1003;48.002;7.788;2023-08-06T13:19:31;0.50;;;0.50;;
2001;SDS011;1003;48.002;7.788;2023-08-06T13:21:59;0.40;;;0.40;;
2001;SDS011;1003;48.002;7.788;2023-08-06T13:24:29;0.53;;;0.53;;
2001;SDS011;1003;48.002;7.788;2023-08-06T13:26:57;1.70;;;0.70;;
2001;SDS011;1003;48.002;7.788;2023-08-06T13:29:26;0.70;;;0.70;;
2001;SDS011;1003;48.002;7.788;2023-08-06T13:31:54;0.67;;;0.40;;
2001;SDS011;1003;48.002;7.788;2023-08-06T13:34:21;1.07;;;0.67;;
2001;SDS011;1003;48.002;7.788;2023-08-06T13:36:48;0.60;;;0.60;;
2001;SDS011;1003;48.002;7.788;2023-08-06T13:39:15;2.37;;;0.80;;
2001;SDS011;1003;48.002;7.788;2023-08-06T13:41:43;0.60;;;0.60;;
2001;SDS011;1003;48.002;7.788;2023-08-06T13:44:12;0.60;;;0.60;;
2001;SDS011;1003;48.002;7.788;2023-08-06T13:46:40;0.50;;;0.50;;
2001;SDS011;1003;48.002;7.788;2023-08-06T13:49:09;2.90;;;0.80;;
2001;SDS011;1003;48.002;7.788;2023-08-06T13:51:37;1.07;;;0.57;;
2001;SDS011;1003;48.002;7.788;2023-08-06T13:54:08;0.80;;;0.60;;
2001;SDS011;1003;48.002;7.788;2023-08-06T13:56:36;2.30;;;0.80;;
2001;SDS011;1003;48.002;7.788;2023-08-06T13:59:03;0.53;;;0.53;;
2001;SDS011;1003;48.002;7.788;2023-08-06T14:01:32;1.23;;;0.80;;
2001;SDS011;1003;48.002;7.788;2023-08-06T14:03:59;0.53;;;0.53;;
2001;SDS011;1003;48.002;7.788;2023-08-06T14:06:26;0.67;;;0.57;;
2001;SDS011;1003;48.002;7.788;2023-08-06T14:08:53;0.60;;;0.60;;
2001;SDS011;1003;48.002;7.788;2023-08-06T14:11:21;1.90;;;0.60;;
2001;SDS011;1003;48.002;7.788;2023-08-06T14:13:48;0.53;;;0.50;;
2001;SDS011;1003;48.002;7.788;2023-08-06T14:16:15;3.13;;;0.70;;
2001;SDS011;1003;48.002;7.788;2023-08-06T14:18:43;0.73;;;0.73;;
2001;SDS011;1003;48.002;7.788;2023-08-06T14:21:10;0.60;;;0.60;;
2001;SDS011;1003;48.002;7.788;2023-08-06T14:23:38;1.03;;;0.80;;
2001;SDS011;1003;48.002;7.788;2023-08-06T14:26:06;1.80;;;0.77;;
2001;SDS011;1003;48.002;7.788;2023-08-06T14:28:35;1.70;;;0.80;;
2001;SDS011;1003;48.002;7.788;2023-08-06T14:31:02;1.23;;;0.70;;
2001;SDS011;1003;48.002;7.788;2023-08-06T14:33:30;2.27;;;1.53;;
2001;SDS011;1003;48.002;7.788;2023-08-06T14:35:58;0.97;;;0.70;;
2001;SDS011;1003;48.002;7.788;2023-08-06T14:38:25;0.87;;;0.87;;
2001;SDS011;1003;48.002;7.788;2023-08-06T14:40:52;0.93;;;0.70;;
2001;SDS011;1003;48.002;7.788;2023-08-06T14:43:19;1.60;;;0.70;;
2001;SDS011;1003;48.002;7.788;2023-08-06T14:45:46;0.80;;;0.77;;
2001;SDS011;1003;48.002;7.788;2023-08-06T14:48:13;1.30;;;0.80;;
2001;SDS011;1003;48.002;7.788;2023-08-06T14:50:40;0.80;;;0.80;;
2001;SDS011;1003;48.002;7.788;2023-08-06T14:53:09;0.73;;;0.70;;
2001;SDS011;1003;48.002;7.788;2023-08-06T14:55:36;0.97;;;0.77;;
2001;SDS011;1003;48.002;7.788;2023-08-06T14:58:03;0.80;;;0.80;;
2001;SDS011;1003;48.002;7.788;2023-08-06T15:00:30;0.87;;;0.83;;
2001;SDS011;1003;48.002;7.788;2023-08-06T15:02:58;0.80;;;0.80;;
2001;SDS011;1003;48.002;7.788;2023-08-06T15:05:25;0.60;;;0.60;;
2001;SDS011;1003;48.002;7.788;2023-08-06T15:07:52;0.70;;;0.70;;
2001;SDS011;1003;48.002;7.788;2023-08-06T15:10:20;1.27;;;0.87;;
2001;SDS011;1003;48.002;7.788;2023-08-06T15:12:47;1.00;;;0.90;;
2001;SDS011;1003;48.002;7.788;2023-08-06T15:15:15;1.33;;;1.03;;
2001;SDS011;1003;48.002;7.788;2023-08-06T15:17:42;1.07;;;0.87;;
2001;SDS011;1003;48.002;7.788;2023-08-06T15:20:09;1.13;;;1.00;;
2001;SDS011;1003;48.002;7.788;2023-08-06T15:22:38;1.37;;;0.90;;